Time;durP1;ratioP1;P1;durP2;ratioP2;P2;SDS_P1;SDS_P2;PMS_P1;PMS_P2;Temp;Humidity;BMP_temperature;BMP_pressure;BME280_temperature;BME280_humidity;BME280_pressure;Samples;Min_cycle;Max_cycle;Signal;HPM_P1;HPM_P2
2022/02/11 00:00:03;;;;;;;7.87;5.83;;;;;;;;;;2049079;28;20181;-50
2022/02/11 00:00:53;;;;;;;11.90;5.70;;;;;;;;;;2049062;28;20764;-52
2022/02/11 00:02:13;;;;;;;6.73;4.97;;;;;;;;;;2053385;28;20262;-51
2022/02/11 00:07:13;;;;;;;12.57;4.77;;;;;;;;;;2058980;28;20166;-58
2022/02/11 00:08:06;;;;;;;7.07;4.50;;;;;;;;;;2056547;28;20190;-57
2022/02/11 00:09:06;;;;;;;8.33;4.80;;;;;;;;;;2058651;28;20196;-53
2022/02/11 00:10:08;;;;;;;11.97;5.07;;;;;;;;;;2060691;28;20194;-55
2022/02/11 00:11:08;;;;;;;6.17;4.60;;;;;;;;;;2060186;28;20205;-57
2022/02/11 00:12:08;;;;;;;6.67;4.40;;;;;;;;;;2056101;28;20178;-57
2022/02/11 00:13:09;;;;;;;8.87;4.40;;;;;;;;;;2065489;28;20569;-54
2022/02/11 00:14:09;;;;;;;9.07;4.30;;;;;;;;;;2068664;28;20665;-56
2022/02/11 00:15:34;;;;;;;9.43;4.93;;;;;;;;;;2069297;28;20601;-59
2022/02/11 00:16:30;;;;;;;8.43;4.50;;;;;;;;;;2064648;28;20563;-56
2022/02/11 00:17:31;;;;;;;10.27;4.93;;;;;;;;;;2067110;28;20174;-56
2022/02/11 00:18:31;;;;;;;9.23;5.43;;;;;;;;;;2063009;28;20254;-53
2022/02/11 00:19:31;;;;;;;8.70;4.70;;;;;;;;;;2059764;28;20233;-56
2022/02/11 00:20:32;;;;;;;9.37;4.53;;;;;;;;;;2064893;28;20249;-58
2022/02/11 00:21:33;;;;;;;7.57;4.53;;;;;;;;;;2064841;28;20225;-58
2022/02/11 00:22:33;;;;;;;9.20;4.57;;;;;;;;;;2059598;28;20178;-56
2022/02/11 00:23:36;;;;;;;9.50;5.20;;;;;;;;;;2065698;28;20182;-55
2022/02/11 00:24:37;;;;;;;10.43;4.77;;;;;;;;;;2058501;28;20202;-55
2022/02/11 00:25:44;;;;;;;8.60;4.30;;;;;;;;;;2057611;28;20189;-57
2022/02/11 00:26:55;;;;;;;8.97;4.60;;;;;;;;;;2058149;28;20619;-57
2022/02/11 00:33:38;;;;;;;8.07;4.27;;;;;;;;;;2068529;28;20170;-55
2022/02/11 00:34:47;;;;;;;10.97;4.77;;;;;;;;;;2067986;28;20531;-57
2022/02/11 00:35:56;;;;;;;5.60;3.73;;;;;;;;;;2066141;28;20281;-56
2022/02/11 00:37:12;;;;;;;9.53;4.30;;;;;;;;;;2060620;28;20664;-55
2022/02/11 00:38:19;;;;;;;8.10;4.30;;;;;;;;;;2058051;28;20174;-56
2022/02/11 00:47:06;;;;;;;7.80;3.60;;;;;;;;;;2066549;28;20650;-57
2022/02/11 01:02:10;;;;;;;6.80;3.70;;;;;;;;;;2057418;28;20185;-55
2022/02/11 01:02:56;;;;;;;9.33;4.23;;;;;;;;;;2058756;28;20178;-57
2022/02/11 01:03:59;;;;;;;15.70;4.20;;;;;;;;;;2059020;28;20190;-57
2022/02/11 01:05:00;;;;;;;8.73;5.20;;;;;;;;;;2058951;28;20169;-56
2022/02/11 01:06:00;;;;;;;4.93;3.70;;;;;;;;;;2060132;28;20178;-59
2022/02/11 01:07:00;;;;;;;11.20;4.97;;;;;;;;;;2058357;28;20197;-57
2022/02/11 01:08:00;;;;;;;9.40;4.07;;;;;;;;;;2058233;28;20189;-56
2022/02/11 01:09:02;;;;;;;6.33;4.43;;;;;;;;;;2064774;28;20196;-57
2022/02/11 01:10:02;;;;;;;9.53;4.33;;;;;;;;;;2057393;28;20174;-57
2022/02/11 01:11:03;;;;;;;8.57;4.00;;;;;;;;;;2058624;28;20672;-56
2022/02/11 01:12:05;;;;;;;12.27;5.07;;;;;;;;;;2061183;28;20166;-58
2022/02/11 01:13:05;;;;;;;10.87;4.33;;;;;;;;;;2058444;28;20694;-57
2022/02/11 01:14:06;;;;;;;5.90;3.77;;;;;;;;;;2055806;28;20209;-55
2022/02/11 01:15:06;;;;;;;11.80;4.53;;;;;;;;;;2050529;29;20234;-55
2022/02/11 01:16:12;;;;;;;11.47;4.73;;;;;;;;;;2057832;28;20262;-57
2022/02/11 01:17:36;;;;;;;7.30;3.63;;;;;;;;;;2057170;28;20155;-56
2022/02/11 01:18:36;;;;;;;10.03;4.40;;;;;;;;;;2057863;28;20571;-55
2022/02/11 01:19:48;;;;;;;5.43;4.57;;;;;;;;;;2057681;28;20174;-54
2022/02/11 01:20:55;;;;;;;11.00;4.60;;;;;;;;;;2058360;28;20198;-55
2022/02/11 01:22:08;;;;;;;6.30;5.00;;;;;;;;;;2057971;28;20162;-54
2022/02/11 01:24:35;;;;;;;7.10;4.20;;;;;;;;;;2057783;28;20249;-54
2022/02/11 01:26:53;;;;;;;11.50;5.27;;;;;;;;;;2057001;28;21009;-53
2022/02/11 01:32:34;;;;;;;7.00;5.00;;;;;;;;;;2061519;28;20691;-56
2022/02/11 01:33:30;;;;;;;7.53;5.57;;;;;;;;;;2052739;28;20205;-55
2022/02/11 01:37:21;;;;;;;12.30;5.60;;;;;;;;;;2057358;28;20249;-57
2022/02/11 01:45:50;;;;;;;8.20;6.13;;;;;;;;;;2059225;28;20325;-58
2022/02/11 01:51:51;;;;;;;18.17;6.17;;;;;;;;;;2056948;28;20172;-58
2022/02/11 01:53:44;;;;;;;12.10;7.20;;;;;;;;;;2059758;28;20217;-57
2022/02/11 01:56:30;;;;;;;15.53;7.73;;;;;;;;;;2061207;28;20204;-55
2022/02/11 01:57:00;;;;;;;14.53;7.70;;;;;;;;;;2052805;28;20221;-55
2022/02/11 02:02:03;;;;;;;11.50;7.83;;;;;;;;;;2056418;28;20186;-58
2022/02/11 02:09:56;;;;;;;18.53;8.57;;;;;;;;;;2056379;28;20253;-56
2022/02/11 02:20:16;;;;;;;17.73;11.47;;;;;;;;;;2062662;28;20190;-54
2022/02/11 02:21:39;;;;;;;14.57;10.43;;;;;;;;;;2060851;28;20190;-56
2022/02/11 02:25:07;;;;;;;19.30;11.13;;;;;;;;;;2064125;28;20717;-55
2022/02/11 02:26:37;;;;;;;19.67;10.93;;;;;;;;;;2056875;28;20204;-55
2022/02/11 02:31:26;;;;;;;19.13;11.93;;;;;;;;;;2065467;28;20695;-53
2022/02/11 02:38:05;;;;;;;17.23;11.90;;;;;;;;;;2059675;28;20534;-55
2022/02/11 02:39:29;;;;;;;18.77;10.77;;;;;;;;;;2064066;28;20189;-53
2022/02/11 02:57:19;;;;;;;17.40;12.00;;;;;;;;;;2059519;28;20189;-56
2022/02/11 02:58:28;;;;;;;14.53;10.43;;;;;;;;;;2064477;28;20189;-55
2022/02/11 03:15:25;;;;;;;15.37;10.40;;;;;;;;;;2060392;28;20181;-55
2022/02/11 03:55:01;;;;;;;24.97;11.83;;;;;;;;;;2057089;28;20217;-54
2022/02/11 04:22:37;;;;;;;23.27;12.03;;;;;;;;;;2065846;28;20188;-53
2022/02/11 04:56:04;;;;;;;21.97;16.47;;;;;;;;;;2064807;28;20864;-59
2022/02/11 04:59:39;;;;;;;18.20;14.33;;;;;;;;;;2065055;28;20173;-58
2022/02/11 05:00:39;;;;;;;18.23;14.50;;;;;;;;;;2065387;28;20941;-55
2022/02/11 05:01:41;;;;;;;19.87;14.67;;;;;;;;;;2065525;28;20162;-57
2022/02/11 05:02:42;;;;;;;18.93;14.40;;;;;;;;;;2065281;28;20169;-58
2022/02/11 05:03:42;;;;;;;18.27;13.93;;;;;;;;;;2065982;28;20610;-59
2022/02/11 05:04:43;;;;;;;20.93;15.23;;;;;;;;;;2065377;28;20185;-56
2022/02/11 05:05:49;;;;;;;17.27;13.70;;;;;;;;;;2065607;28;20645;-57
2022/02/11 05:06:49;;;;;;;16.97;14.17;;;;;;;;;;2064864;28;20177;-56
2022/02/11 05:07:50;;;;;;;20.13;15.27;;;;;;;;;;2064907;28;20681;-55
2022/02/11 05:08:50;;;;;;;16.30;13.80;;;;;;;;;;2064338;28;20194;-56
2022/02/11 05:09:50;;;;;;;17.50;13.80;;;;;;;;;;2065375;28;20689;-55
2022/02/11 05:10:52;;;;;;;23.60;14.20;;;;;;;;;;2065330;28;20169;-57
2022/02/11 05:11:52;;;;;;;22.67;14.73;;;;;;;;;;2065398;28;20213;-58
2022/02/11 05:12:53;;;;;;;14.73;12.97;;;;;;;;;;2065265;28;20435;-57
2022/02/11 05:13:53;;;;;;;18.07;13.67;;;;;;;;;;2065466;28;20268;-57
2022/02/11 05:14:53;;;;;;;18.30;14.20;;;;;;;;;;2064940;28;20241;-58
2022/02/11 05:15:54;;;;;;;16.57;13.77;;;;;;;;;;2064645;28;20190;-58
2022/02/11 05:16:54;;;;;;;14.13;12.17;;;;;;;;;;2065475;28;20657;-56
2022/02/11 05:17:55;;;;;;;15.80;12.33;;;;;;;;;;2065201;28;20845;-57
2022/02/11 05:18:55;;;;;;;17.77;14.00;;;;;;;;;;2064302;28;20174;-57
2022/02/11 05:19:55;;;;;;;18.40;12.57;;;;;;;;;;2064642;28;20209;-59
2022/02/11 05:20:56;;;;;;;16.43;13.60;;;;;;;;;;2065375;28;20198;-58
2022/02/11 05:21:56;;;;;;;15.60;13.37;;;;;;;;;;2065219;28;20193;-59
2022/02/11 05:22:56;;;;;;;15.17;12.30;;;;;;;;;;2065401;28;20189;-56
2022/02/11 05:23:57;;;;;;;19.23;14.03;;;;;;;;;;2065350;28;20170;-58
2022/02/11 05:24:57;;;;;;;11.53;10.33;;;;;;;;;;2065242;28;20190;-57
2022/02/11 05:25:57;;;;;;;15.33;11.07;;;;;;;;;;2064595;28;20181;-59
2022/02/11 05:26:57;;;;;;;14.87;11.33;;;;;;;;;;2062594;28;20220;-58
2022/02/11 05:27:58;;;;;;;19.63;13.40;;;;;;;;;;2064532;28;20661;-57
2022/02/11 05:28:58;;;;;;;21.20;13.80;;;;;;;;;;2058127;28;20209;-57
2022/02/11 05:29:58;;;;;;;18.00;11.23;;;;;;;;;;2055611;28;20214;-59
2022/02/11 05:30:59;;;;;;;11.60;10.50;;;;;;;;;;2059126;28;20280;-59
2022/02/11 05:31:59;;;;;;;15.77;11.87;;;;;;;;;;2060797;28;20187;-59
2022/02/11 05:32:59;;;;;;;16.37;12.63;;;;;;;;;;2064676;28;20913;-57
2022/02/11 05:34:00;;;;;;;16.83;12.47;;;;;;;;;;2059522;28;20178;-58
2022/02/11 05:35:00;;;;;;;22.30;13.10;;;;;;;;;;2061871;28;20228;-58
2022/02/11 05:36:00;;;;;;;18.00;11.77;;;;;;;;;;2058567;28;20293;-58
2022/02/11 05:37:01;;;;;;;17.63;12.73;;;;;;;;;;2062140;28;20179;-55
2022/02/11 05:38:01;;;;;;;14.93;12.80;;;;;;;;;;2063701;28;20826;-57
2022/02/11 05:39:01;;;;;;;19.83;12.63;;;;;;;;;;2064892;28;20177;-58
2022/02/11 05:40:02;;;;;;;16.53;12.93;;;;;;;;;;2059361;28;20669;-55
2022/02/11 05:41:03;;;;;;;15.07;12.70;;;;;;;;;;2056043;28;20216;-57
2022/02/11 05:42:04;;;;;;;15.40;11.93;;;;;;;;;;2059487;28;20178;-58
2022/02/11 05:43:04;;;;;;;14.13;11.70;;;;;;;;;;2062739;28;20228;-57
2022/02/11 05:44:04;;;;;;;15.33;11.13;;;;;;;;;;2063238;28;20186;-58
2022/02/11 05:45:05;;;;;;;18.03;12.33;;;;;;;;;;2059366;28;20201;-56
2022/02/11 05:46:05;;;;;;;15.83;11.27;;;;;;;;;;2060824;28;20652;-57
2022/02/11 05:47:06;;;;;;;15.53;12.27;;;;;;;;;;2064594;28;20190;-56
2022/02/11 05:48:06;;;;;;;12.73;10.97;;;;;;;;;;2063386;28;20212;-59
2022/02/11 05:49:06;;;;;;;13.20;11.10;;;;;;;;;;2064099;28;20220;-56
2022/02/11 05:50:07;;;;;;;15.33;11.20;;;;;;;;;;2063774;28;20227;-59
2022/02/11 05:51:07;;;;;;;14.30;11.03;;;;;;;;;;2062507;28;20199;-57
2022/02/11 05:52:07;;;;;;;13.50;10.83;;;;;;;;;;2063199;28;20549;-55
2022/02/11 05:53:09;;;;;;;14.53;10.27;;;;;;;;;;2063285;28;20697;-59
2022/02/11 05:54:10;;;;;;;16.07;12.10;;;;;;;;;;2064697;28;20181;-57
2022/02/11 05:55:10;;;;;;;15.27;11.17;;;;;;;;;;2064947;28;20709;-57
2022/02/11 05:56:10;;;;;;;13.97;9.83;;;;;;;;;;2057797;28;20269;-58
2022/02/11 05:57:10;;;;;;;10.30;8.13;;;;;;;;;;2056276;28;20268;-59
2022/02/11 05:58:11;;;;;;;16.30;8.50;;;;;;;;;;2063193;28;20181;-58
2022/02/11 05:59:11;;;;;;;17.60;9.77;;;;;;;;;;2057350;28;20659;-58
2022/02/11 06:00:11;;;;;;;10.47;7.73;;;;;;;;;;2063321;28;20240;-55
2022/02/11 06:01:12;;;;;;;11.10;8.43;;;;;;;;;;2063779;28;20248;-58
2022/02/11 06:02:12;;;;;;;11.37;6.80;;;;;;;;;;2064515;28;20177;-58
2022/02/11 06:03:12;;;;;;;16.20;7.27;;;;;;;;;;2072072;23;20216;-62
2022/02/11 06:04:13;;;;;;;14.47;7.53;;;;;;;;;;2071567;28;20299;-62
2022/02/11 06:05:16;;;;;;;12.23;6.37;;;;;;;;;;2070862;28;20205;-61
2022/02/11 06:06:16;;;;;;;8.37;6.30;;;;;;;;;;2071843;28;20219;-61
2022/02/11 06:07:17;;;;;;;10.20;6.67;;;;;;;;;;2064901;28;20166;-58
2022/02/11 06:08:18;;;;;;;9.80;4.23;;;;;;;;;;2071707;28;20189;-59
2022/02/11 06:09:18;;;;;;;7.93;5.60;;;;;;;;;;2059012;28;20293;-61
2022/02/11 06:10:20;;;;;;;6.20;4.57;;;;;;;;;;2064372;28;20519;-62
2022/02/11 06:11:20;;;;;;;8.13;4.00;;;;;;;;;;2064179;28;20228;-60
2022/02/11 06:12:20;;;;;;;8.20;4.70;;;;;;;;;;2062674;28;20171;-61
2022/02/11 06:13:21;;;;;;;6.23;3.97;;;;;;;;;;2051115;28;20290;-58
2022/02/11 06:14:22;;;;;;;7.50;4.17;;;;;;;;;;2055547;28;20638;-60
2022/02/11 06:15:23;;;;;;;10.77;4.97;;;;;;;;;;2056574;28;20248;-61
2022/02/11 06:16:23;;;;;;;6.73;4.40;;;;;;;;;;2064049;28;20189;-61
2022/02/11 06:17:23;;;;;;;7.93;5.13;;;;;;;;;;2056737;28;20192;-62
2022/02/11 06:18:24;;;;;;;5.73;3.60;;;;;;;;;;2064075;28;20252;-61
2022/02/11 06:19:24;;;;;;;5.30;3.63;;;;;;;;;;2061879;28;20701;-59
2022/02/11 06:20:28;;;;;;;8.50;3.50;;;;;;;;;;2063206;28;20165;-60
2022/02/11 06:21:28;;;;;;;7.67;4.00;;;;;;;;;;2062641;28;20177;-61
2022/02/11 06:22:28;;;;;;;6.40;3.53;;;;;;;;;;2063538;28;20733;-62
2022/02/11 06:23:31;;;;;;;6.90;4.03;;;;;;;;;;2063035;28;20197;-62
2022/02/11 06:24:31;;;;;;;9.13;4.20;;;;;;;;;;2055409;28;20257;-61
2022/02/11 06:25:31;;;;;;;9.87;4.03;;;;;;;;;;2055807;28;20249;-60
2022/02/11 06:26:32;;;;;;;12.27;4.17;;;;;;;;;;2054292;28;20304;-61
2022/02/11 06:27:32;;;;;;;8.57;4.07;;;;;;;;;;2064243;28;20166;-61
2022/02/11 06:28:32;;;;;;;7.47;3.63;;;;;;;;;;2062954;28;20191;-60
2022/02/11 06:29:34;;;;;;;5.07;4.07;;;;;;;;;;2062983;28;20202;-61
2022/02/11 06:30:35;;;;;;;4.10;2.77;;;;;;;;;;2057723;28;20185;-62
2022/02/11 06:31:35;;;;;;;6.57;4.47;;;;;;;;;;2055996;28;20666;-61
2022/02/11 06:32:35;;;;;;;5.77;3.60;;;;;;;;;;2047232;28;20273;-56
2022/02/11 06:33:35;;;;;;;7.33;3.53;;;;;;;;;;2055684;28;20213;-60
2022/02/11 06:34:36;;;;;;;10.87;3.77;;;;;;;;;;2056859;28;20174;-59
2022/02/11 06:35:37;;;;;;;6.20;3.03;;;;;;;;;;2056952;28;20197;-61
2022/02/11 06:36:37;;;;;;;10.37;3.73;;;;;;;;;;2056682;28;20245;-59
2022/02/11 06:37:41;;;;;;;5.70;3.20;;;;;;;;;;2059909;28;20184;-60
2022/02/11 06:38:41;;;;;;;6.80;3.47;;;;;;;;;;2064498;28;20188;-62
2022/02/11 06:39:41;;;;;;;6.97;4.00;;;;;;;;;;2064661;28;20204;-62
2022/02/11 06:40:42;;;;;;;6.17;3.27;;;;;;;;;;2064741;28;20217;-62
2022/02/11 06:41:42;;;;;;;5.60;3.80;;;;;;;;;;2065002;28;20186;-63
2022/02/11 06:42:42;;;;;;;8.80;3.60;;;;;;;;;;2064748;28;20255;-62
2022/02/11 06:43:43;;;;;;;10.50;4.17;;;;;;;;;;2064965;28;20244;-59
2022/02/11 06:44:43;;;;;;;10.50;3.30;;;;;;;;;;2064835;28;20181;-61
2022/02/11 06:45:43;;;;;;;6.60;3.93;;;;;;;;;;2065095;28;20186;-62
2022/02/11 06:46:43;;;;;;;8.50;3.50;;;;;;;;;;2064765;28;20249;-61
2022/02/11 06:47:44;;;;;;;5.57;3.73;;;;;;;;;;2065113;28;20182;-60
2022/02/11 06:48:44;;;;;;;11.43;4.10;;;;;;;;;;2064574;28;20628;-56
2022/02/11 06:49:44;;;;;;;9.93;3.43;;;;;;;;;;2065034;28;20213;-61
2022/02/11 06:50:46;;;;;;;12.67;4.03;;;;;;;;;;2065067;28;20180;-62
2022/02/11 06:51:46;;;;;;;5.97;3.30;;;;;;;;;;2064238;28;20245;-61
2022/02/11 06:52:48;;;;;;;6.73;3.03;;;;;;;;;;2064361;28;20614;-61
2022/02/11 06:53:49;;;;;;;11.83;3.73;;;;;;;;;;2064199;28;20571;-60
2022/02/11 06:54:49;;;;;;;8.73;2.67;;;;;;;;;;2064393;28;20186;-59
2022/02/11 06:55:49;;;;;;;9.77;3.97;;;;;;;;;;2064697;28;20165;-58
2022/02/11 06:56:50;;;;;;;7.03;3.43;;;;;;;;;;2065024;28;20193;-60
2022/02/11 06:57:50;;;;;;;9.90;3.40;;;;;;;;;;2059775;28;20178;-63
2022/02/11 06:58:52;;;;;;;7.87;2.80;;;;;;;;;;2060169;28;20201;-61
2022/02/11 06:59:52;;;;;;;7.33;3.27;;;;;;;;;;2060673;28;20194;-60
2022/02/11 07:00:53;;;;;;;8.80;3.60;;;;;;;;;;2064620;28;20256;-63
2022/02/11 07:01:53;;;;;;;10.13;3.87;;;;;;;;;;2059985;28;20265;-58
2022/02/11 07:02:53;;;;;;;8.83;3.70;;;;;;;;;;2060159;28;20213;-61
2022/02/11 07:03:54;;;;;;;5.67;3.40;;;;;;;;;;2059977;28;20243;-62
2022/02/11 07:04:54;;;;;;;6.40;3.20;;;;;;;;;;2064243;28;20654;-61
2022/02/11 07:05:58;;;;;;;9.73;3.70;;;;;;;;;;2063546;28;20170;-60
2022/02/11 07:06:58;;;;;;;7.67;3.30;;;;;;;;;;2063195;28;20184;-60
2022/02/11 07:07:58;;;;;;;11.33;2.80;;;;;;;;;;2060359;28;20213;-61
2022/02/11 07:08:58;;;;;;;7.17;2.63;;;;;;;;;;2056611;28;20601;-61
2022/02/11 07:09:59;;;;;;;7.87;3.57;;;;;;;;;;2057061;28;20237;-62
2022/02/11 07:10:59;;;;;;;8.40;3.00;;;;;;;;;;2062685;28;20185;-62
2022/02/11 07:11:59;;;;;;;7.60;3.67;;;;;;;;;;2064893;28;20243;-62
2022/02/11 07:13:00;;;;;;;7.27;3.20;;;;;;;;;;2065550;28;20200;-62
2022/02/11 07:14:00;;;;;;;7.47;3.00;;;;;;;;;;2062804;28;20178;-59
2022/02/11 07:15:00;;;;;;;7.00;3.97;;;;;;;;;;2065306;28;20193;-58
2022/02/11 07:16:00;;;;;;;11.23;2.87;;;;;;;;;;2063371;28;20185;-63
2022/02/11 07:17:01;;;;;;;10.73;3.80;;;;;;;;;;2059970;28;20210;-61
2022/02/11 07:18:01;;;;;;;4.57;3.20;;;;;;;;;;2058425;28;20175;-62
2022/02/11 07:19:01;;;;;;;7.30;3.00;;;;;;;;;;2062983;28;20220;-61
2022/02/11 07:20:02;;;;;;;6.80;3.00;;;;;;;;;;2064699;28;20667;-62
2022/02/11 07:21:02;;;;;;;12.33;3.60;;;;;;;;;;2059744;28;20198;-61
2022/02/11 07:22:03;;;;;;;10.93;3.60;;;;;;;;;;2056521;28;20182;-61
2022/02/11 07:23:03;;;;;;;10.60;3.67;;;;;;;;;;2062157;28;20743;-62
2022/02/11 07:24:03;;;;;;;8.10;3.43;;;;;;;;;;2064266;28;20197;-62
2022/02/11 07:25:11;;;;;;;11.83;3.57;;;;;;;;;;2064945;28;20193;-61
2022/02/11 07:26:11;;;;;;;9.70;3.17;;;;;;;;;;2064870;28;20178;-62
2022/02/11 07:27:12;;;;;;;10.23;3.57;;;;;;;;;;2065255;28;20638;-62
2022/02/11 07:28:12;;;;;;;11.33;3.40;;;;;;;;;;2065660;28;20174;-61
2022/02/11 07:29:14;;;;;;;8.50;3.40;;;;;;;;;;2058836;28;20217;-62
2022/02/11 07:30:15;;;;;;;10.10;3.70;;;;;;;;;;2057488;28;20225;-62
2022/02/11 07:31:16;;;;;;;11.77;3.80;;;;;;;;;;2064699;28;20320;-61
2022/02/11 07:32:16;;;;;;;11.67;3.67;;;;;;;;;;2058240;28;20170;-62
2022/02/11 07:33:16;;;;;;;8.23;3.00;;;;;;;;;;2057820;28;20192;-62
2022/02/11 07:34:17;;;;;;;10.87;3.77;;;;;;;;;;2057984;28;20286;-62
2022/02/11 07:35:18;;;;;;;9.83;3.70;;;;;;;;;;2058131;28;20194;-61
2022/02/11 07:36:19;;;;;;;9.93;3.27;;;;;;;;;;2057996;28;20198;-62
2022/02/11 07:37:19;;;;;;;6.63;3.27;;;;;;;;;;2057654;28;20575;-63
2022/02/11 07:38:20;;;;;;;9.47;2.83;;;;;;;;;;2057877;28;20186;-60
2022/02/11 07:39:20;;;;;;;9.10;3.10;;;;;;;;;;2057455;28;20164;-61
2022/02/11 07:40:21;;;;;;;10.13;4.00;;;;;;;;;;2058024;28;20595;-60
2022/02/11 07:41:21;;;;;;;10.90;3.63;;;;;;;;;;2057881;28;20175;-61
2022/02/11 07:42:21;;;;;;;11.23;3.77;;;;;;;;;;2057885;28;20586;-61
2022/02/11 07:43:23;;;;;;;7.93;3.47;;;;;;;;;;2057941;28;20658;-60
2022/02/11 07:44:23;;;;;;;9.70;3.30;;;;;;;;;;2058054;28;20647;-61
2022/02/11 07:45:27;;;;;;;9.07;3.23;;;;;;;;;;2057938;28;20189;-62
2022/02/11 07:46:28;;;;;;;11.27;3.80;;;;;;;;;;2057921;28;20257;-61
2022/02/11 07:47:29;;;;;;;9.00;3.30;;;;;;;;;;2057957;28;20176;-62
2022/02/11 07:48:29;;;;;;;7.13;2.90;;;;;;;;;;2058018;28;20175;-60
2022/02/11 07:49:29;;;;;;;8.40;3.33;;;;;;;;;;2057426;28;20595;-62
2022/02/11 07:50:30;;;;;;;10.90;4.70;;;;;;;;;;2058013;28;20178;-61
2022/02/11 07:51:30;;;;;;;4.97;2.80;;;;;;;;;;2057777;28;20665;-60
2022/02/11 07:52:30;;;;;;;8.20;2.70;;;;;;;;;;2058028;28;20171;-60
2022/02/11 07:53:34;;;;;;;7.77;2.97;;;;;;;;;;2057821;28;20685;-59
2022/02/11 07:54:34;;;;;;;12.33;3.40;;;;;;;;;;2057985;28;20178;-57
2022/02/11 07:55:34;;;;;;;8.97;2.83;;;;;;;;;;2057857;28;20189;-60
2022/02/11 07:56:35;;;;;;;11.47;3.80;;;;;;;;;;2058096;28;20166;-61
2022/02/11 07:57:35;;;;;;;8.10;3.40;;;;;;;;;;2057938;28;20198;-61
2022/02/11 07:58:35;;;;;;;8.17;2.60;;;;;;;;;;2057376;28;20304;-60
2022/02/11 07:59:36;;;;;;;9.60;2.93;;;;;;;;;;2056967;28;20174;-61
2022/02/11 08:00:36;;;;;;;8.00;2.70;;;;;;;;;;2060744;28;20217;-60
2022/02/11 08:01:36;;;;;;;5.43;3.00;;;;;;;;;;2063690;28;20176;-60
2022/02/11 08:02:37;;;;;;;8.13;3.73;;;;;;;;;;2059583;28;20182;-61
2022/02/11 08:03:37;;;;;;;9.33;3.00;;;;;;;;;;2063683;28;20245;-58
2022/02/11 08:04:38;;;;;;;6.30;2.97;;;;;;;;;;2057451;28;20174;-62
2022/02/11 08:05:38;;;;;;;9.13;3.10;;;;;;;;;;2057792;28;20190;-61
2022/02/11 08:06:38;;;;;;;8.10;3.10;;;;;;;;;;2064349;28;20713;-59
2022/02/11 08:07:40;;;;;;;8.20;3.13;;;;;;;;;;2067000;28;20205;-58
2022/02/11 08:08:40;;;;;;;6.90;3.20;;;;;;;;;;2067969;28;20196;-61
2022/02/11 08:09:41;;;;;;;10.30;3.37;;;;;;;;;;2069190;28;20169;-62
2022/02/11 08:10:41;;;;;;;6.17;3.53;;;;;;;;;;2069257;28;20177;-61
2022/02/11 08:11:41;;;;;;;9.13;3.00;;;;;;;;;;2070186;28;20732;-62
2022/02/11 08:12:41;;;;;;;11.20;3.53;;;;;;;;;;2071263;28;20181;-62
2022/02/11 08:13:42;;;;;;;7.53;2.60;;;;;;;;;;2071276;28;20216;-61
2022/02/11 08:14:42;;;;;;;9.60;3.07;;;;;;;;;;2071854;28;20202;-60
2022/02/11 08:15:42;;;;;;;4.90;3.57;;;;;;;;;;2069852;28;20274;-60
2022/02/11 08:16:43;;;;;;;10.63;3.40;;;;;;;;;;2069779;28;20197;-59
2022/02/11 08:17:43;;;;;;;7.73;2.87;;;;;;;;;;2069184;28;20192;-59
2022/02/11 08:18:43;;;;;;;7.60;3.07;;;;;;;;;;2067476;28;20173;-60
2022/02/11 08:19:44;;;;;;;7.07;3.00;;;;;;;;;;2068033;28;20177;-61
2022/02/11 08:20:44;;;;;;;6.73;3.70;;;;;;;;;;2065616;28;20214;-61
2022/02/11 08:21:44;;;;;;;6.57;2.40;;;;;;;;;;2060484;28;20186;-62
2022/02/11 08:22:45;;;;;;;6.73;2.67;;;;;;;;;;2061334;28;20194;-60
2022/02/11 08:23:45;;;;;;;6.73;3.63;;;;;;;;;;2062771;28;20186;-60
2022/02/11 08:24:45;;;;;;;13.13;2.80;;;;;;;;;;2061761;28;20189;-61
2022/02/11 08:25:45;;;;;;;8.60;3.67;;;;;;;;;;2059751;28;20705;-60
2022/02/11 08:26:46;;;;;;;8.27;3.30;;;;;;;;;;2059959;28;20705;-61
2022/02/11 08:27:47;;;;;;;10.80;3.50;;;;;;;;;;2059280;28;20674;-61
2022/02/11 08:28:48;;;;;;;9.07;3.30;;;;;;;;;;2059419;28;20169;-60
2022/02/11 08:29:48;;;;;;;9.00;3.27;;;;;;;;;;2059556;28;20178;-61
2022/02/11 08:30:49;;;;;;;6.37;3.03;;;;;;;;;;2058834;28;20170;-61
2022/02/11 08:31:50;;;;;;;7.60;3.10;;;;;;;;;;2059464;28;20185;-57
2022/02/11 08:32:50;;;;;;;12.97;3.50;;;;;;;;;;2059358;28;20166;-58
2022/02/11 08:33:51;;;;;;;5.90;2.97;;;;;;;;;;2060010;28;20198;-56
2022/02/11 08:34:52;;;;;;;9.67;3.00;;;;;;;;;;2063144;28;20193;-58
2022/02/11 08:35:53;;;;;;;6.70;2.70;;;;;;;;;;2062820;28;20610;-59
2022/02/11 08:36:53;;;;;;;5.17;3.17;;;;;;;;;;2062164;28;20194;-60
2022/02/11 08:37:53;;;;;;;3.80;2.43;;;;;;;;;;2053820;29;20171;-60
2022/02/11 08:38:55;;;;;;;5.97;2.77;;;;;;;;;;2061345;28;20178;-58
2022/02/11 08:39:55;;;;;;;8.50;3.23;;;;;;;;;;2062597;28;20194;-60
2022/02/11 08:40:56;;;;;;;7.00;2.87;;;;;;;;;;2060991;28;20205;-59
2022/02/11 08:41:56;;;;;;;5.70;2.57;;;;;;;;;;2058146;28;20245;-58
2022/02/11 08:42:56;;;;;;;7.90;3.30;;;;;;;;;;2057992;28;20185;-61
2022/02/11 08:43:56;;;;;;;11.77;3.17;;;;;;;;;;2057727;28;20170;-61
2022/02/11 08:44:57;;;;;;;4.80;2.73;;;;;;;;;;2049058;28;20643;-61
2022/02/11 08:45:57;;;;;;;7.33;2.97;;;;;;;;;;2048981;29;20166;-60
2022/02/11 08:46:57;;;;;;;5.43;2.63;;;;;;;;;;2057687;28;20253;-59
2022/02/11 08:47:57;;;;;;;9.17;3.00;;;;;;;;;;2057663;28;20178;-60
2022/02/11 08:48:58;;;;;;;4.57;2.77;;;;;;;;;;2057510;28;20712;-61
2022/02/11 08:50:00;;;;;;;8.47;3.50;;;;;;;;;;2057280;28;20174;-61
2022/02/11 08:51:00;;;;;;;10.00;2.73;;;;;;;;;;2056893;28;20658;-57
2022/02/11 08:52:00;;;;;;;7.83;3.30;;;;;;;;;;2056925;28;20182;-60
2022/02/11 08:53:01;;;;;;;4.60;2.70;;;;;;;;;;2057448;28;20201;-61
2022/02/11 08:54:01;;;;;;;6.30;2.53;;;;;;;;;;2056950;28;20225;-60
2022/02/11 08:55:02;;;;;;;8.33;2.77;;;;;;;;;;2056999;28;20261;-60
2022/02/11 08:56:06;;;;;;;7.73;2.80;;;;;;;;;;2057650;28;20193;-59
2022/02/11 08:57:06;;;;;;;8.67;2.83;;;;;;;;;;2057411;28;20186;-60
2022/02/11 08:58:07;;;;;;;8.57;2.90;;;;;;;;;;2056747;28;20225;-60
2022/02/11 08:59:07;;;;;;;5.77;2.50;;;;;;;;;;2056561;28;20174;-60
2022/02/11 09:00:08;;;;;;;6.43;2.53;;;;;;;;;;2056771;28;20651;-61
2022/02/11 09:01:08;;;;;;;6.40;2.70;;;;;;;;;;2056912;28;20347;-60
2022/02/11 09:02:11;;;;;;;8.70;3.53;;;;;;;;;;2057434;28;20262;-62
2022/02/11 09:03:11;;;;;;;10.70;3.13;;;;;;;;;;2057300;28;20220;-61
2022/02/11 09:04:11;;;;;;;6.37;3.43;;;;;;;;;;2057641;28;20190;-60
2022/02/11 09:05:12;;;;;;;7.80;3.00;;;;;;;;;;2048889;28;20597;-59
2022/02/11 09:06:12;;;;;;;6.20;3.60;;;;;;;;;;2048928;29;20727;-60
2022/02/11 09:07:12;;;;;;;4.87;2.90;;;;;;;;;;2057710;28;20171;-61
2022/02/11 09:08:13;;;;;;;8.63;3.87;;;;;;;;;;2057625;28;20273;-62
2022/02/11 09:09:13;;;;;;;10.93;3.20;;;;;;;;;;2057484;28;20214;-62
2022/02/11 09:10:14;;;;;;;6.13;3.10;;;;;;;;;;2057910;28;20265;-62
2022/02/11 09:11:19;;;;;;;6.50;3.47;;;;;;;;;;2057735;28;20209;-62
2022/02/11 09:12:19;;;;;;;7.40;3.47;;;;;;;;;;2057874;28;20171;-62
2022/02/11 09:13:20;;;;;;;11.53;3.73;;;;;;;;;;2058139;28;20224;-62
2022/02/11 09:14:20;;;;;;;7.30;3.37;;;;;;;;;;2057975;28;20624;-63
2022/02/11 09:15:21;;;;;;;7.63;3.47;;;;;;;;;;2057760;28;20182;-60
2022/02/11 09:16:22;;;;;;;5.70;3.40;;;;;;;;;;2057675;28;20192;-60
2022/02/11 09:17:22;;;;;;;7.10;3.60;;;;;;;;;;2057368;28;20193;-63
2022/02/11 09:18:22;;;;;;;5.63;3.63;;;;;;;;;;2059539;28;20181;-61
2022/02/11 09:19:23;;;;;;;7.53;3.40;;;;;;;;;;2064051;28;20224;-57
2022/02/11 09:20:23;;;;;;;5.30;3.23;;;;;;;;;;2057177;28;20205;-61
2022/02/11 09:21:24;;;;;;;4.57;2.90;;;;;;;;;;2064295;28;20176;-62
2022/02/11 09:22:24;;;;;;;7.53;2.67;;;;;;;;;;2061182;28;20173;-61
2022/02/11 09:23:25;;;;;;;7.47;2.87;;;;;;;;;;2064323;28;20200;-62
2022/02/11 09:24:25;;;;;;;5.03;3.10;;;;;;;;;;2060479;28;20565;-62
2022/02/11 09:25:26;;;;;;;5.33;2.77;;;;;;;;;;2063875;28;20197;-63
2022/02/11 09:26:27;;;;;;;5.07;2.90;;;;;;;;;;2060360;28;20178;-62
2022/02/11 09:27:27;;;;;;;9.13;2.63;;;;;;;;;;2055857;28;20181;-59
2022/02/11 09:28:27;;;;;;;7.87;2.83;;;;;;;;;;2058617;28;20226;-62
2022/02/11 09:29:27;;;;;;;6.97;2.43;;;;;;;;;;2064161;28;20552;-63
2022/02/11 09:30:28;;;;;;;5.43;2.33;;;;;;;;;;2062686;28;20170;-63
2022/02/11 09:31:28;;;;;;;5.63;2.23;;;;;;;;;;2056501;28;20520;-60
2022/02/11 09:32:29;;;;;;;7.80;2.60;;;;;;;;;;2058077;28;20193;-62
2022/02/11 09:33:30;;;;;;;4.23;2.50;;;;;;;;;;2063160;28;20185;-61
2022/02/11 09:34:32;;;;;;;7.00;3.10;;;;;;;;;;2058199;28;20206;-61
2022/02/11 09:35:33;;;;;;;4.37;2.27;;;;;;;;;;2062858;28;20202;-60
2022/02/11 09:36:34;;;;;;;3.47;2.00;;;;;;;;;;2058705;28;20585;-61
2022/02/11 09:37:34;;;;;;;6.57;2.40;;;;;;;;;;2062570;28;20173;-62
2022/02/11 09:38:36;;;;;;;5.20;2.40;;;;;;;;;;2058949;28;20172;-61
2022/02/11 09:39:36;;;;;;;5.27;2.30;;;;;;;;;;2062334;28;20177;-60
2022/02/11 09:40:44;;;;;;;3.63;2.53;;;;;;;;;;2056916;28;20218;-62
2022/02/11 09:41:45;;;;;;;5.70;2.63;;;;;;;;;;2056503;28;20709;-61
2022/02/11 09:42:45;;;;;;;4.33;2.30;;;;;;;;;;2059581;28;20209;-62
2022/02/11 09:43:46;;;;;;;5.23;2.30;;;;;;;;;;2056212;28;20197;-61
2022/02/11 09:44:48;;;;;;;5.73;2.50;;;;;;;;;;2061462;28;20181;-62